Aktualne dane pomiarowe

Uwaga, wersja testowa! Automatyczne pobieranie danych za pomocą narzędzi lub skryptów to umożliwiających jest zabronione.

Dane meteo z obszaru Polski uzyskane na podstawie depesz SYNOP pobieranych co godzinę z NWS. Najedź myszką na symbol przedstawiony w tabeli, aby uzyskać informacje co do jego znaczenia. Prosimy pamiętać, że to testowa wersja strony, która jeszcze nie jest ukończona. Stworzono również jest krótki FAQ dotyczący korzystania z tej podstrony Anomalie temperatury w chwili obecnej odniesione są do okresu referencyjnego 1951-2016. Okres ten będzie później zmieniony na 1981-2010. Kliknij ikonę aby pobrać plik CSV. Kliknij ikonę aby wygenerować mapę synoptyczną dla danego terminu.

Wybierz Datę:    

        

Sulejów (12469)

Dane terminowe dla wybranej stacji. Kliknij datę, aby otrzymać dane z tego terminu dla wszystkich stacji.

TemperaturaZachmurzenieWiatrCiśnienieOpadyPogoda
 Data t td wb tx tn tg rh  Nt Nl Cl Cm Ch ws wd g1 g2 wx mslp ppp ch 24h 12h t ww ww w1 w2  
2019-07-04 23:00:00 11.5 5.3 7.9--- 6645.0wx-wxwx2wx--21017.2 994.4 -0.9---------
2019-07-04 22:00:00 12.1 5.4 8.3--- 6445.0wx-wxwx3wx--31017.5 994.7 -0.7---------
2019-07-04 21:00:00 13.6 4.9 8.8--- 5650.0wx-wxwx1wx--11017.7 995.0 -0.7---------
2019-07-04 20:00:00 15.0 4.0 9.1--- 4850.0wx-wxwx2wx--21017.9 995.3 -0.5---------
2019-07-04 19:00:00 17.2 3.4 10.0--- 4050.0wx-wxwx1wx--11017.8 995.4 -0.8---------
2019-07-04 18:00:00 20.2 2.9 11.3 22.8 16.2- 3250.0wx-wx3wx-1331017.9 995.7 -0.9- 0.012------
2019-07-04 17:00:00 21.1 2.7 11.6--- 3040.0wxwxwxwx5wx--51017.9 995.8 -1.2---------
2019-07-04 16:00:00 21.8 2.4 11.8--- 2840.0wxwxwxwx6wx---1018.3 996.2 -1.2---------
2019-07-04 15:00:00 22.2 3.2 12.3--- 2940.0wxwxwxwx6wx-1361018.6 996.6 -1.4---------
2019-07-04 14:00:00 21.7 3.7 12.2--- 3140.0wxwxwxwx6wx111161019.1 997.0 -1.1---------
2019-07-04 13:00:00 21.2 3.3 11.9--- 3140.0wxwxwxwx6wx-1361019.5 997.4 -1.0---------
2019-07-04 12:00:00 21.3 3.8 12.1--- 3235.0wxwxwx7wx13--1020.1 998.0 -0.6---------
2019-07-04 11:00:00 20.9 3.5 11.8--- 3235.0wxwxwx7wx-1471020.3 998.1 -0.7---------
2019-07-04 10:00:00 20.3 3.8 11.6--- 3435.0wxwxwx6wx-1061020.6 998.4 -0.6---------
2019-07-04 09:00:00 18.4 4.5 11.0--- 4040.0wxwxwx6wx111261021.0 998.6 -0.2---------
2019-07-04 08:00:00 17.7 2.7 10.0--- 3740.0wxwxwx6wx111161021.2 998.8 0.0---------
2019-07-04 07:00:00 17.8 3.9 10.5--- 4040.0wxwxwxwx5wx10--1021.4 999.0 0.1---------
2019-07-04 06:00:00 16.2 6.2 10.6 19.0 6.3 4 5240.0wx-wx3wx--31021.4 998.8 -0.1- 0.012----- 11.8
2019-07-04 05:00:00 12.7 6.4 9.0--- 6640.0wx-wx2wx--21021.6 998.8 0.0---------
2019-07-04 04:00:00 8.1 4.9 6.1--- 8045.0wx-wx2wx--21022.1 998.9 0.3---------
2019-07-04 03:00:00 6.9 4.1 5.2--- 8245.0wxwxwxwx2wx--21022.2 998.9 0.4---------
2019-07-04 02:00:00 6.7 4.6 5.3--- 8645.0wx-wx1wx--11022.1 998.8 0.3---------
2019-07-04 01:00:00 7.7 3.8 5.4--- 7650.0wx-wx2wx--21021.8 998.6 0.1---------
2019-07-04 00:00:00 8.2 4.1 5.8--- 7550.0wx-wx2wx-921021.7 998.5 0.3- 0.06------
2019-07-03 23:00:00 10.2 4.0 6.7--- 6545.0wx-wx1wx--11021.5 998.5 0.6---------
2019-07-03 22:00:00 11.0 4.4 7.3--- 6450.0wx-wx1wx--11021.5 998.5 1.1---------
2019-07-03 21:00:00 11.3 4.6 7.5--- 6350.0wxwxwxwx2wx-921021.1 998.2 1.1---------
2019-07-03 20:00:00 13.7 4.2 8.6--- 5340.0wxwxwxwx2wx--21020.6 997.9 0.6---------
2019-07-03 19:00:00 16.6 2.5 9.4--- 3950.0wxwxwxwx3wx-931019.9 997.4 0.3---------
2019-07-03 18:00:00 18.9 1.7 10.2 21.6 15.9- 3250.0wxwxwxwx4wx-1141019.4 997.1 -0.1- 0.012------
2019-07-03 17:00:00 18.8 2.1 10.3--- 3350.0wxwxwxwx4wx--41019.6 997.3 0.0---------
2019-07-03 16:00:00 20.5 2.2 11.2--- 3045.0wxwxwx4wx-1041019.3 997.1 -0.2---------
2019-07-03 15:00:00 20.4 2.1 11.1--- 3045.0wxwxwx5wx-1151019.4 997.2 -0.2---------
2019-07-03 14:00:00 19.6 2.4 10.8--- 3240.0wxwxwx6wx111161019.6 997.3 -0.1---------
2019-07-03 13:00:00 21.5 2.6 11.7--- 2940.0wxwxwx6wx-1161019.4 997.3 0.0---------
2019-07-03 12:00:00 20.7 1.9 11.1--- 2940.0wxwxwx6wx-1461019.6 997.4 -0.1- 0.06------
2019-07-03 11:00:00 20.0 2.3 11.0--- 3140.0wxwxwx6wx-1161019.6 997.4 0.0---------
2019-07-03 10:00:00 19.2 3.3 10.9--- 3540.0wxwxwx6wx-1361019.6 997.3 0.1---------
2019-07-03 09:00:00 18.4 3.7 10.7--- 3835.0wxwxwx6wx---1019.9 997.5 0.6---------
2019-07-03 08:00:00 17.4 5.2 10.8--- 4535.0wxwxwx6wx111161019.8 997.4 0.7---------
2019-07-03 07:00:00 16.3 6.0 10.6--- 5140.0wxwxwx4wx--41019.7 997.2 0.5---------
2019-07-03 06:00:00 16.3 6.6 10.8 21.6 9.5 8 5335.0wxwxwxwx3wx--31019.4 996.9 0.2- 0.012----- 12.5
2019-07-03 05:00:00 14.3 7.7 10.4--- 6535.0wxwxwxwx3wx--31019.4 996.7 0.4---------
2019-07-03 04:00:00 11.2 7.8 9.0--- 8040.0wxwxwxwx2wx--21019.6 996.7 0.8---------
2019-07-03 03:00:00 9.7 6.9 7.9--- 8340.0wx-wx2wx--21019.7 996.7 1.0---------
2019-07-03 02:00:00 10.2 7.0 8.2--- 8145.0wxwxwxwxwx3wx--31019.3 996.3 0.8---------
2019-07-03 01:00:00 12.6 7.0 9.3--- 6945.0wxwxwxwxwx3wx--31018.7 995.9 0.6---------
2019-07-03 00:00:00 13.0 8.2 10.0--- 7340.0wxwxwxwx2wx--21018.4 995.7 0.6- 0.06------
1.8 ms

 

Print Friendly, PDF & Email